createdAt,value
2023-01-26T00:00:42.763Z,6.28
2023-01-26T00:03:14.095Z,5.25
2023-01-26T00:05:45.769Z,5.85
2023-01-26T00:08:17.096Z,5.20
2023-01-26T00:10:51.681Z,6.03
2023-01-26T00:13:24.070Z,8.00
2023-01-26T00:15:55.838Z,6.35
2023-01-26T00:18:26.760Z,8.15
2023-01-26T00:21:05.296Z,5.57
2023-01-26T00:23:37.305Z,6.57
2023-01-26T00:26:09.852Z,4.28
2023-01-26T00:28:43.238Z,3.72
2023-01-26T00:31:19.599Z,5.85
2023-01-26T00:33:51.074Z,5.95
2023-01-26T00:38:52.384Z,7.18
2023-01-26T00:41:41.230Z,9.23
2023-01-26T00:44:12.646Z,22.83
2023-01-26T00:46:43.564Z,6.95
2023-01-26T00:49:14.880Z,3.85
2023-01-26T00:51:46.012Z,3.38
2023-01-26T00:54:17.099Z,6.85
2023-01-26T00:56:50.290Z,5.05
2023-01-26T00:59:21.333Z,4.43
2023-01-26T01:01:53.055Z,5.25
2023-01-26T01:06:54.719Z,4.97
2023-01-26T01:09:26.256Z,5.15
2023-01-26T01:11:57.408Z,3.50
2023-01-26T01:14:28.827Z,3.60
2023-01-26T01:17:00.237Z,5.45
2023-01-26T01:19:31.819Z,4.68
2023-01-26T01:22:02.986Z,6.68
2023-01-26T01:27:07.328Z,4.13
2023-01-26T01:29:38.552Z,5.32
2023-01-26T01:32:09.457Z,5.82
2023-01-26T01:34:40.797Z,6.47
2023-01-26T01:37:14.969Z,5.43
2023-01-26T01:39:46.554Z,6.20
2023-01-26T01:42:17.464Z,6.80
2023-01-26T01:44:49.658Z,9.98
2023-01-26T01:47:28.296Z,13.68
2023-01-26T01:50:00.155Z,7.93
2023-01-26T01:52:33.373Z,6.38
2023-01-26T01:55:11.241Z,6.32
2023-01-26T01:57:57.834Z,7.22
2023-01-26T02:00:29.892Z,6.25
2023-01-26T02:06:29.689Z,5.78
2023-01-26T02:09:00.825Z,9.15
2023-01-26T02:11:41.455Z,6.55
2023-01-26T02:14:14.492Z,6.68
2023-01-26T02:16:45.439Z,7.32
2023-01-26T02:19:45.022Z,5.72
2023-01-26T02:22:35.909Z,5.20
2023-01-26T02:25:28.631Z,5.25
2023-01-26T02:27:59.547Z,6.45
2023-01-26T02:30:31.378Z,5.20
2023-01-26T02:33:02.879Z,5.40
2023-01-26T02:35:34.427Z,5.97
2023-01-26T02:38:05.872Z,5.47
2023-01-26T02:40:39.872Z,4.43
2023-01-26T02:43:11.057Z,7.88
2023-01-26T02:45:43.194Z,5.32
2023-01-26T02:48:14.525Z,6.80
2023-01-26T02:50:45.797Z,6.78
2023-01-26T02:53:18.512Z,6.20
2023-01-26T02:55:49.766Z,4.95
2023-01-26T02:58:20.857Z,6.10
2023-01-26T03:00:51.968Z,6.25
2023-01-26T03:03:42.897Z,7.45
2023-01-26T03:06:15.110Z,4.37
2023-01-26T03:08:46.327Z,7.20
2023-01-26T03:11:17.960Z,5.28
2023-01-26T03:13:49.220Z,5.68
2023-01-26T03:19:20.636Z,5.22
2023-01-26T03:22:10.538Z,5.28
2023-01-26T03:25:00.150Z,4.22
2023-01-26T03:27:43.433Z,5.35
2023-01-26T03:30:20.707Z,7.05
2023-01-26T03:32:52.994Z,6.05
2023-01-26T03:35:24.936Z,5.50
2023-01-26T03:37:56.456Z,4.15
2023-01-26T03:40:58.362Z,3.72
2023-01-26T03:43:47.210Z,6.28
2023-01-26T03:46:36.785Z,14.20
2023-01-26T03:49:26.944Z,8.13
2023-01-26T03:52:16.649Z,8.13
2023-01-26T03:55:07.256Z,6.50
2023-01-26T03:57:43.591Z,6.10
2023-01-26T04:00:16.517Z,6.40
2023-01-26T04:03:07.648Z,6.15
2023-01-26T04:05:57.190Z,3.65
2023-01-26T04:08:51.634Z,5.68
2023-01-26T04:14:11.489Z,7.88
2023-01-26T04:17:00.915Z,8.90
2023-01-26T04:19:50.715Z,5.95
2023-01-26T04:22:22.735Z,4.40
2023-01-26T04:24:53.898Z,5.03
2023-01-26T04:27:25.197Z,7.32
2023-01-26T04:29:56.957Z,7.22
2023-01-26T04:32:28.762Z,8.38
2023-01-26T04:34:59.842Z,5.97
2023-01-26T04:37:33.293Z,5.15
2023-01-26T04:40:05.791Z,6.47
2023-01-26T04:42:38.657Z,4.72
2023-01-26T04:45:11.792Z,5.53
2023-01-26T04:47:43.383Z,6.53
2023-01-26T04:50:15.768Z,7.03
2023-01-26T04:52:48.832Z,10.52
2023-01-26T04:55:20.397Z,6.45
2023-01-26T04:57:51.470Z,6.03
2023-01-26T05:00:23.609Z,8.25
2023-01-26T05:02:56.428Z,7.07
2023-01-26T05:05:27.391Z,6.90
2023-01-26T05:07:58.827Z,5.72
2023-01-26T05:10:32.491Z,6.65
2023-01-26T05:13:25.479Z,6.30
2023-01-26T05:16:15.405Z,5.97
2023-01-26T05:19:04.474Z,7.53
2023-01-26T05:21:53.352Z,5.75
2023-01-26T05:27:23.647Z,7.05
2023-01-26T05:30:03.770Z,7.13
2023-01-26T05:32:37.895Z,9.00
2023-01-26T05:35:09.847Z,9.93
2023-01-26T05:40:13.487Z,9.23
2023-01-26T05:42:45.525Z,6.90
2023-01-26T05:45:27.614Z,6.57
2023-01-26T05:48:01.048Z,6.38
2023-01-26T05:50:33.207Z,3.88
2023-01-26T05:53:36.155Z,6.93
2023-01-26T05:56:07.941Z,6.88
2023-01-26T05:58:43.060Z,8.88
2023-01-26T06:01:14.249Z,7.28
2023-01-26T06:03:53.414Z,6.68
2023-01-26T06:06:25.161Z,8.63
2023-01-26T06:09:04.793Z,7.25
2023-01-26T06:11:36.482Z,7.75
2023-01-26T06:14:26.199Z,7.43
2023-01-26T06:16:58.251Z,7.72
2023-01-26T06:19:29.975Z,8.52
2023-01-26T06:22:04.663Z,6.97
2023-01-26T06:24:36.977Z,9.32
2023-01-26T06:29:40.538Z,7.38
2023-01-26T06:34:48.473Z,6.78
2023-01-26T06:37:19.597Z,6.30
2023-01-26T06:42:21.929Z,10.32
2023-01-26T06:44:54.453Z,5.03
2023-01-26T06:47:25.933Z,7.90
2023-01-26T06:49:57.254Z,7.65
2023-01-26T06:52:33.478Z,12.88
2023-01-26T06:55:26.483Z,8.20
2023-01-26T06:58:15.965Z,7.80
2023-01-26T07:01:07.264Z,8.68
2023-01-26T07:03:38.240Z,5.68
2023-01-26T07:06:12.731Z,7.95
2023-01-26T07:08:43.936Z,7.93
2023-01-26T07:11:15.269Z,9.20
2023-01-26T07:13:46.433Z,8.95
2023-01-26T07:16:18.728Z,6.45
2023-01-26T07:18:49.847Z,8.60
2023-01-26T07:21:21.488Z,6.55
2023-01-26T07:28:55.188Z,9.70
2023-01-26T07:31:26.723Z,10.77
2023-01-26T07:34:01.381Z,12.50
2023-01-26T07:36:32.382Z,10.43
2023-01-26T07:39:03.509Z,8.82
2023-01-26T07:41:34.953Z,8.73
2023-01-26T07:44:16.625Z,8.23
2023-01-26T07:46:47.600Z,9.20
2023-01-26T07:49:18.619Z,12.02
2023-01-26T07:51:49.653Z,10.10
2023-01-26T07:54:20.760Z,8.38
2023-01-26T07:56:55.970Z,8.07
2023-01-26T07:59:27.130Z,10.77
2023-01-26T08:01:58.557Z,9.70
2023-01-26T08:04:29.948Z,12.23
2023-01-26T08:07:01.000Z,11.63
2023-01-26T08:09:32.160Z,9.80
2023-01-26T08:12:03.449Z,8.95
2023-01-26T08:14:46.137Z,10.98
2023-01-26T08:17:18.933Z,10.23
2023-01-26T08:19:50.241Z,10.13
2023-01-26T08:22:21.650Z,13.32
2023-01-26T08:24:52.964Z,12.55
2023-01-26T08:27:24.793Z,9.80
2023-01-26T08:29:55.936Z,9.90
2023-01-26T08:32:27.139Z,11.05
2023-01-26T08:34:58.318Z,12.05
2023-01-26T08:37:29.616Z,10.77
2023-01-26T08:40:00.646Z,10.20
2023-01-26T08:42:33.967Z,9.02
2023-01-26T08:45:04.809Z,8.38
2023-01-26T08:47:35.797Z,10.20
2023-01-26T08:50:07.074Z,10.07
2023-01-26T08:55:09.237Z,12.45
2023-01-26T08:57:40.432Z,9.82
2023-01-26T09:00:12.480Z,11.63
2023-01-26T09:02:44.023Z,13.15
2023-01-26T09:05:15.358Z,8.48
2023-01-26T09:07:46.675Z,10.63
2023-01-26T09:10:18.117Z,8.60
2023-01-26T09:12:49.179Z,12.48
2023-01-26T09:15:20.275Z,9.43
2023-01-26T09:17:51.878Z,10.20
2023-01-26T09:22:53.813Z,10.57
2023-01-26T09:25:24.952Z,12.35
2023-01-26T09:27:57.074Z,12.70
2023-01-26T09:30:28.502Z,12.32
2023-01-26T09:33:04.543Z,10.38
2023-01-26T09:35:35.753Z,8.43
2023-01-26T09:38:06.649Z,9.25
2023-01-26T09:41:10.001Z,9.38
2023-01-26T09:43:47.533Z,12.10
2023-01-26T09:46:26.252Z,11.38
2023-01-26T09:49:15.438Z,10.40
2023-01-26T09:52:08.707Z,10.55
2023-01-26T09:54:42.818Z,9.50
2023-01-26T09:57:17.277Z,10.07
2023-01-26T10:00:00.351Z,11.05
2023-01-26T10:02:52.928Z,10.43
2023-01-26T10:05:44.512Z,10.57
2023-01-26T10:08:17.827Z,12.20
2023-01-26T10:10:56.220Z,10.05
2023-01-26T10:13:27.432Z,12.18
2023-01-26T10:16:07.666Z,12.40
2023-01-26T10:19:08.662Z,12.98
2023-01-26T10:21:42.897Z,10.23
2023-01-26T10:24:14.880Z,13.73
2023-01-26T10:26:46.204Z,10.45
2023-01-26T10:29:18.915Z,10.63
2023-01-26T10:31:49.842Z,15.88
2023-01-26T10:34:26.770Z,12.43
2023-01-26T10:37:25.165Z,9.68
2023-01-26T10:40:03.989Z,10.43
2023-01-26T10:42:36.714Z,9.85
2023-01-26T10:45:25.845Z,11.50
2023-01-26T10:48:16.574Z,13.35
2023-01-26T10:50:48.896Z,14.07
2023-01-26T10:53:26.209Z,12.77
2023-01-26T10:56:08.652Z,12.98
2023-01-26T10:58:49.907Z,11.82
2023-01-26T11:01:28.708Z,11.57
2023-01-26T11:04:16.211Z,12.40
2023-01-26T11:06:47.468Z,10.90
2023-01-26T11:09:30.933Z,10.93
2023-01-26T11:12:04.007Z,9.70
2023-01-26T11:14:36.199Z,10.00
2023-01-26T11:17:24.998Z,11.45
2023-01-26T11:20:14.599Z,11.80
2023-01-26T11:23:34.718Z,12.63
2023-01-26T11:26:41.923Z,13.45
2023-01-26T11:29:32.798Z,14.68
2023-01-26T11:32:13.836Z,14.60
2023-01-26T11:34:58.254Z,15.00
2023-01-26T11:37:35.594Z,11.63
2023-01-26T11:40:16.887Z,9.25
2023-01-26T11:43:17.244Z,11.90
2023-01-26T11:46:13.595Z,8.23
2023-01-26T11:49:21.320Z,12.98
2023-01-26T11:52:13.877Z,11.30
2023-01-26T11:55:06.696Z,12.68
2023-01-26T11:57:56.228Z,13.88
2023-01-26T12:00:44.401Z,12.63
2023-01-26T12:03:25.932Z,10.60
2023-01-26T12:06:01.200Z,9.95
2023-01-26T12:08:42.533Z,11.75
2023-01-26T12:11:24.706Z,14.80
2023-01-26T12:14:16.757Z,10.70
2023-01-26T12:19:28.061Z,10.95
2023-01-26T12:22:04.976Z,11.02
2023-01-26T12:25:17.572Z,10.48
2023-01-26T12:27:49.301Z,9.40
2023-01-26T12:30:35.520Z,11.25
2023-01-26T12:33:07.675Z,10.95
2023-01-26T12:35:57.358Z,14.98
2023-01-26T12:38:55.281Z,9.95
2023-01-26T12:41:44.224Z,13.70
2023-01-26T12:44:28.470Z,12.77
2023-01-26T12:47:07.695Z,10.80
2023-01-26T12:49:45.563Z,12.73
2023-01-26T12:52:54.932Z,10.40
2023-01-26T12:55:38.667Z,10.65
2023-01-26T12:58:30.832Z,14.63
2023-01-26T13:03:43.465Z,10.25
2023-01-26T13:06:17.815Z,9.75
2023-01-26T13:08:55.104Z,7.90
2023-01-26T13:11:44.718Z,9.13
2023-01-26T13:14:35.711Z,11.32
2023-01-26T13:17:19.055Z,9.93
2023-01-26T13:19:50.099Z,9.50
2023-01-26T13:22:26.838Z,8.82
2023-01-26T13:25:01.697Z,7.97
2023-01-26T13:27:36.086Z,7.63
2023-01-26T13:30:26.702Z,7.53
2023-01-26T13:33:17.144Z,8.50
2023-01-26T13:35:49.180Z,7.77
2023-01-26T13:41:00.744Z,10.35
2023-01-26T13:43:34.098Z,9.77
2023-01-26T13:46:32.497Z,12.68
2023-01-26T13:49:03.768Z,11.80
2023-01-26T13:51:37.319Z,8.48
2023-01-26T13:54:15.577Z,11.70
2023-01-26T13:57:06.301Z,10.00
2023-01-26T13:59:53.762Z,7.15
2023-01-26T14:02:32.785Z,8.00
2023-01-26T14:05:04.829Z,10.13
2023-01-26T14:07:38.420Z,11.13
2023-01-26T14:10:10.595Z,10.68
2023-01-26T14:13:05.705Z,11.63
2023-01-26T14:15:37.339Z,8.65
2023-01-26T14:18:10.324Z,9.82
2023-01-26T14:20:41.800Z,12.73
2023-01-26T14:23:20.792Z,8.88
2023-01-26T14:26:06.411Z,8.55
2023-01-26T14:28:40.638Z,11.45
2023-01-26T14:31:24.295Z,11.00
2023-01-26T14:33:59.269Z,15.20
2023-01-26T14:36:35.412Z,9.55
2023-01-26T14:39:22.190Z,14.07
2023-01-26T14:41:53.197Z,9.20
2023-01-26T14:44:24.408Z,13.18
2023-01-26T14:47:20.171Z,16.17
2023-01-26T14:50:03.814Z,13.23
2023-01-26T14:52:42.191Z,12.15
2023-01-26T14:55:33.862Z,11.20
2023-01-26T14:58:06.531Z,14.13
2023-01-26T15:00:38.877Z,10.25
2023-01-26T15:03:30.333Z,12.55
2023-01-26T15:06:07.398Z,11.00
2023-01-26T15:08:39.907Z,12.27
2023-01-26T15:11:29.534Z,13.35
2023-01-26T15:14:00.766Z,9.63
2023-01-26T15:16:32.201Z,9.93
2023-01-26T15:19:09.370Z,9.55
2023-01-26T15:21:45.695Z,13.00
2023-01-26T15:24:18.029Z,13.32
2023-01-26T15:26:49.394Z,16.05
2023-01-26T15:29:37.545Z,13.73
2023-01-26T15:32:08.795Z,12.43
2023-01-26T15:34:41.934Z,16.38
2023-01-26T15:37:32.974Z,14.88
2023-01-26T15:40:04.601Z,15.52
2023-01-26T15:42:35.678Z,9.90
2023-01-26T15:45:25.925Z,13.30
2023-01-26T15:47:57.096Z,15.55
2023-01-26T15:50:28.545Z,12.85
2023-01-26T15:52:59.665Z,8.10
2023-01-26T15:55:32.939Z,9.93
2023-01-26T15:58:03.879Z,10.27
2023-01-26T16:00:35.244Z,9.25
2023-01-26T16:03:11.944Z,13.45
2023-01-26T16:05:43.694Z,10.02
2023-01-26T16:08:14.528Z,9.02
2023-01-26T16:10:46.188Z,8.38
2023-01-26T16:13:21.404Z,10.55
2023-01-26T16:15:56.697Z,9.73
2023-01-26T16:18:27.786Z,11.18
2023-01-26T16:20:58.874Z,11.65
2023-01-26T16:23:33.357Z,13.45
2023-01-26T16:26:04.209Z,11.05
2023-01-26T16:28:35.406Z,9.23
2023-01-26T16:31:13.864Z,10.98
2023-01-26T16:33:45.411Z,11.70
2023-01-26T16:36:18.408Z,11.32
2023-01-26T16:38:50.622Z,9.23
2023-01-26T16:41:33.398Z,12.50
2023-01-26T16:44:05.555Z,13.73
2023-01-26T16:46:36.688Z,12.05
2023-01-26T16:49:07.721Z,14.38
2023-01-26T16:51:43.095Z,14.82
2023-01-26T16:54:14.333Z,11.35
2023-01-26T16:56:45.794Z,10.98
2023-01-26T16:59:17.184Z,13.95
2023-01-26T17:01:48.538Z,12.57
2023-01-26T17:04:19.466Z,12.70
2023-01-26T17:06:51.404Z,15.02
2023-01-26T17:09:22.667Z,11.07
2023-01-26T17:11:53.826Z,11.93
2023-01-26T17:14:25.820Z,15.30
2023-01-26T17:16:56.898Z,14.23
2023-01-26T17:19:28.830Z,11.88
2023-01-26T17:21:59.954Z,10.95
2023-01-26T17:24:31.069Z,12.82
2023-01-26T17:27:02.565Z,16.58
2023-01-26T17:29:35.191Z,16.17
2023-01-26T17:32:06.234Z,14.30
2023-01-26T17:34:37.179Z,12.40
2023-01-26T17:37:08.478Z,16.88
2023-01-26T17:39:40.132Z,16.55
2023-01-26T17:42:11.074Z,15.55
2023-01-26T17:44:42.059Z,15.07
2023-01-26T17:47:13.035Z,13.35
2023-01-26T17:49:43.987Z,17.05
2023-01-26T17:52:15.779Z,15.38
2023-01-26T17:54:46.990Z,12.30
2023-01-26T17:57:18.060Z,13.13
2023-01-26T17:59:48.911Z,14.80
2023-01-26T18:02:19.872Z,12.27
2023-01-26T18:04:51.276Z,12.50
2023-01-26T18:07:22.541Z,10.13
2023-01-26T18:09:53.493Z,9.95
2023-01-26T18:12:24.858Z,16.63
2023-01-26T18:14:55.918Z,13.25
2023-01-26T18:17:27.423Z,14.98
2023-01-26T18:19:58.522Z,13.95
2023-01-26T18:22:29.927Z,14.95
2023-01-26T18:25:01.285Z,14.73
2023-01-26T18:27:33.130Z,10.93
2023-01-26T18:30:04.282Z,11.10
2023-01-26T18:32:35.331Z,16.17
2023-01-26T18:35:06.694Z,12.60
2023-01-26T18:40:10.168Z,14.02
2023-01-26T18:45:12.358Z,14.55
2023-01-26T18:47:43.652Z,12.35
2023-01-26T18:50:15.054Z,14.32
2023-01-26T18:52:46.180Z,12.52
2023-01-26T18:55:17.308Z,11.15
2023-01-26T18:58:33.740Z,12.57
2023-01-26T19:00:56.127Z,12.95
2023-01-26T19:03:27.296Z,13.13
2023-01-26T19:05:58.379Z,10.68
2023-01-26T19:08:29.747Z,11.10
2023-01-26T19:11:07.473Z,13.15
2023-01-26T19:13:43.407Z,11.45
2023-01-26T19:16:14.522Z,11.88
2023-01-26T19:18:45.899Z,10.50
2023-01-26T19:21:18.635Z,14.60
2023-01-26T19:23:50.747Z,11.68
2023-01-26T19:26:23.849Z,11.02
2023-01-26T19:28:56.298Z,11.75
2023-01-26T19:31:28.551Z,9.65
2023-01-26T19:34:01.562Z,13.00
2023-01-26T19:36:34.210Z,12.38
2023-01-26T19:39:06.601Z,11.35
2023-01-26T19:41:40.427Z,11.20
2023-01-26T19:44:11.716Z,13.38
2023-01-26T19:46:42.623Z,12.68
2023-01-26T19:49:14.886Z,10.80
2023-01-26T19:51:46.259Z,10.82
2023-01-26T19:54:17.629Z,10.30
2023-01-26T19:56:48.679Z,10.00
2023-01-26T19:59:19.610Z,14.73
2023-01-26T20:01:50.938Z,17.20
2023-01-26T20:04:22.356Z,13.18
2023-01-26T20:06:53.726Z,12.98
2023-01-26T20:09:24.721Z,14.38
2023-01-26T20:11:56.002Z,13.27
2023-01-26T20:14:27.276Z,16.73
2023-01-26T20:16:58.180Z,14.00
2023-01-26T20:19:29.659Z,11.93
2023-01-26T20:22:01.221Z,10.90
2023-01-26T20:24:32.527Z,11.65
2023-01-26T20:27:03.758Z,13.32
2023-01-26T20:29:35.389Z,10.90
2023-01-26T20:32:06.555Z,12.20
2023-01-26T20:34:39.476Z,10.30
2023-01-26T20:37:11.866Z,13.65
2023-01-26T20:39:44.951Z,11.23
2023-01-26T20:42:19.860Z,13.70
2023-01-26T20:44:50.799Z,7.63
2023-01-26T20:47:23.913Z,10.23
2023-01-26T20:49:57.582Z,9.10
2023-01-26T20:52:28.806Z,9.02
2023-01-26T20:55:00.253Z,7.28
2023-01-26T20:57:33.667Z,8.32
2023-01-26T21:00:05.548Z,10.00
2023-01-26T21:05:08.549Z,9.07
2023-01-26T21:07:39.468Z,7.72
2023-01-26T21:10:11.927Z,7.40
2023-01-26T21:12:43.514Z,8.13
2023-01-26T21:15:14.922Z,6.68
2023-01-26T21:17:46.135Z,5.78
2023-01-26T21:20:17.603Z,6.78
2023-01-26T21:22:48.773Z,4.78
2023-01-26T21:25:19.986Z,6.22
2023-01-26T21:27:56.436Z,7.07
2023-01-26T21:30:28.028Z,7.63
2023-01-26T21:33:01.383Z,6.28
2023-01-26T21:35:32.485Z,6.13
2023-01-26T21:38:03.749Z,5.40
2023-01-26T21:40:35.082Z,7.30
2023-01-26T21:43:06.723Z,6.85
2023-01-26T21:45:58.097Z,4.93
2023-01-26T21:48:40.756Z,5.80
2023-01-26T21:51:30.062Z,6.68
2023-01-26T21:54:02.153Z,6.13
2023-01-26T21:56:33.232Z,5.07
2023-01-26T21:59:07.642Z,8.25
2023-01-26T22:01:44.410Z,6.78
2023-01-26T22:04:22.062Z,6.57
2023-01-26T22:06:53.764Z,6.25
2023-01-26T22:09:25.745Z,6.95
2023-01-26T22:11:56.887Z,6.03
2023-01-26T22:14:28.392Z,5.18
2023-01-26T22:16:59.528Z,6.00
2023-01-26T22:19:30.897Z,5.50
2023-01-26T22:24:32.798Z,6.15
2023-01-26T22:27:04.236Z,7.00
2023-01-26T22:29:36.053Z,7.85
2023-01-26T22:32:07.435Z,7.30
2023-01-26T22:37:09.331Z,5.00
2023-01-26T22:39:40.533Z,7.13
2023-01-26T22:42:11.646Z,7.28
2023-01-26T22:47:13.635Z,5.03
2023-01-26T22:49:45.055Z,6.85
2023-01-26T22:52:15.930Z,5.03
2023-01-26T22:54:47.046Z,5.55
2023-01-26T22:57:18.691Z,6.22
2023-01-26T22:59:49.653Z,5.00
2023-01-26T23:02:21.000Z,5.63
2023-01-26T23:04:54.934Z,4.82
2023-01-26T23:07:26.279Z,6.40
2023-01-26T23:09:57.273Z,5.95
2023-01-26T23:12:30.322Z,5.85
2023-01-26T23:15:01.542Z,5.85
2023-01-26T23:17:34.121Z,7.05
2023-01-26T23:20:05.219Z,5.50
2023-01-26T23:22:38.524Z,5.57
2023-01-26T23:25:27.908Z,6.30
2023-01-26T23:27:59.167Z,6.78
2023-01-26T23:30:30.499Z,7.60
2023-01-26T23:33:01.713Z,8.35
2023-01-26T23:35:33.075Z,6.70
2023-01-26T23:38:04.084Z,7.55
2023-01-26T23:40:36.898Z,6.97
2023-01-26T23:43:16.740Z,7.72
2023-01-26T23:45:50.811Z,6.85
2023-01-26T23:48:22.565Z,4.90
2023-01-26T23:53:37.767Z,5.10
2023-01-26T23:56:16.304Z,7.30
2023-01-26T23:58:47.803Z,7.15
